sensor_id;sensor_type;location;lat;lon;timestamp;temperature;humidity
30399;DHT22;17195;50.838;7.214;2022-07-23T00:02:08;18.40;99.90
30399;DHT22;17195;50.838;7.214;2022-07-23T00:04:34;18.40;99.90
30399;DHT22;17195;50.838;7.214;2022-07-23T00:06:59;18.40;99.90
30399;DHT22;17195;50.838;7.214;2022-07-23T00:09:25;18.40;99.90
30399;DHT22;17195;50.838;7.214;2022-07-23T00:11:50;18.40;99.90
30399;DHT22;17195;50.838;7.214;2022-07-23T00:14:16;18.40;99.90
30399;DHT22;17195;50.838;7.214;2022-07-23T00:16:41;18.40;99.90
30399;DHT22;17195;50.838;7.214;2022-07-23T00:19:07;18.40;99.90
30399;DHT22;17195;50.838;7.214;2022-07-23T00:21:32;18.40;99.90
30399;DHT22;17195;50.838;7.214;2022-07-23T00:23:58;18.40;99.90
30399;DHT22;17195;50.838;7.214;2022-07-23T00:26:23;18.50;99.90
30399;DHT22;17195;50.838;7.214;2022-07-23T00:28:49;18.50;99.90
30399;DHT22;17195;50.838;7.214;2022-07-23T00:31:15;18.50;99.90
30399;DHT22;17195;50.838;7.214;2022-07-23T00:33:40;18.50;99.90
30399;DHT22;17195;50.838;7.214;2022-07-23T00:36:06;18.40;99.90
30399;DHT22;17195;50.838;7.214;2022-07-23T00:38:32;18.40;99.90
30399;DHT22;17195;50.838;7.214;2022-07-23T00:40:57;18.40;99.90
30399;DHT22;17195;50.838;7.214;2022-07-23T00:43:23;18.40;99.90
30399;DHT22;17195;50.838;7.214;2022-07-23T00:45:49;18.40;99.90
30399;DHT22;17195;50.838;7.214;2022-07-23T00:48:14;18.30;99.90
30399;DHT22;17195;50.838;7.214;2022-07-23T00:50:40;18.30;99.90
30399;DHT22;17195;50.838;7.214;2022-07-23T00:53:06;18.20;99.90
30399;DHT22;17195;50.838;7.214;2022-07-23T00:55:33;18.20;99.90
30399;DHT22;17195;50.838;7.214;2022-07-23T00:57:59;18.30;99.90
30399;DHT22;17195;50.838;7.214;2022-07-23T01:00:26;18.20;99.90
30399;DHT22;17195;50.838;7.214;2022-07-23T01:02:51;18.20;99.90
30399;DHT22;17195;50.838;7.214;2022-07-23T01:05:17;18.20;99.90
30399;DHT22;17195;50.838;7.214;2022-07-23T01:07:51;18.20;99.90
30399;DHT22;17195;50.838;7.214;2022-07-23T01:10:16;18.10;99.90
30399;DHT22;17195;50.838;7.214;2022-07-23T01:13:06;18.10;99.90
30399;DHT22;17195;50.838;7.214;2022-07-23T01:15:33;18.10;99.90
30399;DHT22;17195;50.838;7.214;2022-07-23T01:18:01;18.10;99.90
30399;DHT22;17195;50.838;7.214;2022-07-23T01:20:27;18.20;99.90
30399;DHT22;17195;50.838;7.214;2022-07-23T01:22:53;18.20;99.90
30399;DHT22;17195;50.838;7.214;2022-07-23T01:25:20;18.20;99.90
30399;DHT22;17195;50.838;7.214;2022-07-23T01:27:45;18.20;99.90
30399;DHT22;17195;50.838;7.214;2022-07-23T01:30:12;18.20;99.90
30399;DHT22;17195;50.838;7.214;2022-07-23T01:32:38;18.20;99.90
30399;DHT22;17195;50.838;7.214;2022-07-23T01:35:04;18.20;99.90
30399;DHT22;17195;50.838;7.214;2022-07-23T01:37:30;18.20;99.90
30399;DHT22;17195;50.838;7.214;2022-07-23T01:39:55;18.20;99.90
30399;DHT22;17195;50.838;7.214;2022-07-23T01:42:21;18.20;99.90
30399;DHT22;17195;50.838;7.214;2022-07-23T01:44:47;18.20;99.90
30399;DHT22;17195;50.838;7.214;2022-07-23T01:47:12;18.20;99.90
30399;DHT22;17195;50.838;7.214;2022-07-23T01:49:38;18.20;99.90
30399;DHT22;17195;50.838;7.214;2022-07-23T01:52:03;18.10;99.90
30399;DHT22;17195;50.838;7.214;2022-07-23T01:54:33;18.20;99.90
30399;DHT22;17195;50.838;7.214;2022-07-23T01:56:59;18.20;99.90
30399;DHT22;17195;50.838;7.214;2022-07-23T01:59:25;18.20;99.90
30399;DHT22;17195;50.838;7.214;2022-07-23T02:01:51;18.10;99.90
30399;DHT22;17195;50.838;7.214;2022-07-23T02:04:21;18.20;99.90
30399;DHT22;17195;50.838;7.214;2022-07-23T02:06:47;18.20;99.90
30399;DHT22;17195;50.838;7.214;2022-07-23T02:09:13;18.10;99.90
30399;DHT22;17195;50.838;7.214;2022-07-23T02:11:38;18.10;99.90
30399;DHT22;17195;50.838;7.214;2022-07-23T02:14:04;18.20;99.90
30399;DHT22;17195;50.838;7.214;2022-07-23T02:16:30;18.20;99.90
30399;DHT22;17195;50.838;7.214;2022-07-23T02:18:55;18.10;99.90
30399;DHT22;17195;50.838;7.214;2022-07-23T02:21:21;18.10;99.90
30399;DHT22;17195;50.838;7.214;2022-07-23T02:23:46;18.10;99.90
30399;DHT22;17195;50.838;7.214;2022-07-23T02:26:12;18.10;99.90
30399;DHT22;17195;50.838;7.214;2022-07-23T02:28:37;18.10;99.90
30399;DHT22;17195;50.838;7.214;2022-07-23T02:31:03;18.10;99.90
30399;DHT22;17195;50.838;7.214;2022-07-23T02:33:29;18.10;99.90
30399;DHT22;17195;50.838;7.214;2022-07-23T02:35:55;18.10;99.90
30399;DHT22;17195;50.838;7.214;2022-07-23T02:38:21;18.00;99.90
30399;DHT22;17195;50.838;7.214;2022-07-23T02:40:46;18.00;99.90
30399;DHT22;17195;50.838;7.214;2022-07-23T02:43:12;17.90;99.90
30399;DHT22;17195;50.838;7.214;2022-07-23T02:45:37;17.90;99.90
30399;DHT22;17195;50.838;7.214;2022-07-23T02:48:03;17.90;99.90
30399;DHT22;17195;50.838;7.214;2022-07-23T02:50:28;17.80;99.90
30399;DHT22;17195;50.838;7.214;2022-07-23T02:52:54;17.80;99.90
30399;DHT22;17195;50.838;7.214;2022-07-23T02:55:20;17.70;99.90
30399;DHT22;17195;50.838;7.214;2022-07-23T02:57:45;17.60;99.90
30399;DHT22;17195;50.838;7.214;2022-07-23T03:00:11;17.60;99.90
30399;DHT22;17195;50.838;7.214;2022-07-23T03:02:37;17.60;99.90
30399;DHT22;17195;50.838;7.214;2022-07-23T03:05:03;17.60;99.90
30399;DHT22;17195;50.838;7.214;2022-07-23T03:07:28;17.50;99.90
30399;DHT22;17195;50.838;7.214;2022-07-23T03:09:54;17.50;99.90
30399;DHT22;17195;50.838;7.214;2022-07-23T03:12:20;17.50;99.90
30399;DHT22;17195;50.838;7.214;2022-07-23T03:14:45;17.50;99.90
30399;DHT22;17195;50.838;7.214;2022-07-23T03:17:11;17.50;99.90
30399;DHT22;17195;50.838;7.214;2022-07-23T03:19:36;17.50;99.90
30399;DHT22;17195;50.838;7.214;2022-07-23T03:22:02;17.40;99.90
30399;DHT22;17195;50.838;7.214;2022-07-23T03:24:28;17.40;99.90
30399;DHT22;17195;50.838;7.214;2022-07-23T03:27:14;17.40;99.90
30399;DHT22;17195;50.838;7.214;2022-07-23T03:29:39;17.30;99.90
30399;DHT22;17195;50.838;7.214;2022-07-23T03:32:05;17.40;99.90
30399;DHT22;17195;50.838;7.214;2022-07-23T03:34:31;17.30;99.90
30399;DHT22;17195;50.838;7.214;2022-07-23T03:36:56;17.20;99.90
30399;DHT22;17195;50.838;7.214;2022-07-23T03:39:22;17.20;99.90
30399;DHT22;17195;50.838;7.214;2022-07-23T03:41:47;17.10;99.90
30399;DHT22;17195;50.838;7.214;2022-07-23T03:44:13;17.00;99.90
30399;DHT22;17195;50.838;7.214;2022-07-23T03:46:38;16.90;99.90
30399;DHT22;17195;50.838;7.214;2022-07-23T03:49:04;16.90;99.90
30399;DHT22;17195;50.838;7.214;2022-07-23T03:51:29;16.80;99.90
30399;DHT22;17195;50.838;7.214;2022-07-23T03:53:55;16.70;99.90
30399;DHT22;17195;50.838;7.214;2022-07-23T03:56:21;16.60;99.90
30399;DHT22;17195;50.838;7.214;2022-07-23T03:58:46;16.50;99.90
30399;DHT22;17195;50.838;7.214;2022-07-23T04:01:12;16.40;99.90
30399;DHT22;17195;50.838;7.214;2022-07-23T04:03:38;16.40;99.90
30399;DHT22;17195;50.838;7.214;2022-07-23T04:06:04;16.40;99.90
30399;DHT22;17195;50.838;7.214;2022-07-23T04:08:29;16.30;99.90
30399;DHT22;17195;50.838;7.214;2022-07-23T04:10:55;16.30;99.90
30399;DHT22;17195;50.838;7.214;2022-07-23T04:13:20;16.20;99.90
30399;DHT22;17195;50.838;7.214;2022-07-23T04:15:46;16.20;99.90
30399;DHT22;17195;50.838;7.214;2022-07-23T04:18:12;16.20;99.90
30399;DHT22;17195;50.838;7.214;2022-07-23T04:20:37;16.20;99.90
30399;DHT22;17195;50.838;7.214;2022-07-23T04:23:03;16.20;99.90
30399;DHT22;17195;50.838;7.214;2022-07-23T04:25:29;16.30;99.90
30399;DHT22;17195;50.838;7.214;2022-07-23T04:27:54;16.40;99.90
30399;DHT22;17195;50.838;7.214;2022-07-23T04:30:20;16.40;99.90
30399;DHT22;17195;50.838;7.214;2022-07-23T04:32:45;16.50;99.90
30399;DHT22;17195;50.838;7.214;2022-07-23T04:35:11;16.50;99.90
30399;DHT22;17195;50.838;7.214;2022-07-23T04:37:36;16.60;99.90
30399;DHT22;17195;50.838;7.214;2022-07-23T04:40:02;16.60;99.90
30399;DHT22;17195;50.838;7.214;2022-07-23T04:42:28;16.50;99.90
30399;DHT22;17195;50.838;7.214;2022-07-23T04:44:53;16.60;99.90
30399;DHT22;17195;50.838;7.214;2022-07-23T04:47:19;16.60;99.90
30399;DHT22;17195;50.838;7.214;2022-07-23T04:49:44;16.60;99.90
30399;DHT22;17195;50.838;7.214;2022-07-23T04:52:10;16.50;99.90
30399;DHT22;17195;50.838;7.214;2022-07-23T04:54:35;16.60;99.90
30399;DHT22;17195;50.838;7.214;2022-07-23T04:57:01;16.50;99.90
30399;DHT22;17195;50.838;7.214;2022-07-23T04:59:26;16.50;99.90
30399;DHT22;17195;50.838;7.214;2022-07-23T05:01:52;16.50;99.90
30399;DHT22;17195;50.838;7.214;2022-07-23T05:04:18;16.60;99.90
30399;DHT22;17195;50.838;7.214;2022-07-23T05:06:43;16.70;99.90
30399;DHT22;17195;50.838;7.214;2022-07-23T05:09:09;16.60;99.90
30399;DHT22;17195;50.838;7.214;2022-07-23T05:11:34;16.70;99.90
30399;DHT22;17195;50.838;7.214;2022-07-23T05:14:00;16.70;99.90
30399;DHT22;17195;50.838;7.214;2022-07-23T05:16:25;16.70;99.90
30399;DHT22;17195;50.838;7.214;2022-07-23T05:18:51;16.70;99.90
30399;DHT22;17195;50.838;7.214;2022-07-23T05:21:16;16.70;99.90
30399;DHT22;17195;50.838;7.214;2022-07-23T05:23:42;16.80;99.90
30399;DHT22;17195;50.838;7.214;2022-07-23T05:26:08;16.80;99.90
30399;DHT22;17195;50.838;7.214;2022-07-23T05:28:33;16.90;99.90
30399;DHT22;17195;50.838;7.214;2022-07-23T05:30:59;16.90;99.90
30399;DHT22;17195;50.838;7.214;2022-07-23T05:33:24;17.00;99.90
30399;DHT22;17195;50.838;7.214;2022-07-23T05:35:50;17.10;99.90
30399;DHT22;17195;50.838;7.214;2022-07-23T05:38:15;17.20;99.90
30399;DHT22;17195;50.838;7.214;2022-07-23T05:40:41;17.30;99.90
30399;DHT22;17195;50.838;7.214;2022-07-23T05:43:06;17.30;99.90
30399;DHT22;17195;50.838;7.214;2022-07-23T05:45:32;17.40;99.90
30399;DHT22;17195;50.838;7.214;2022-07-23T05:47:57;17.50;99.90
30399;DHT22;17195;50.838;7.214;2022-07-23T05:50:23;17.60;99.90
30399;DHT22;17195;50.838;7.214;2022-07-23T05:52:49;17.70;99.90
30399;DHT22;17195;50.838;7.214;2022-07-23T05:55:14;17.70;99.90
30399;DHT22;17195;50.838;7.214;2022-07-23T05:57:40;17.70;99.90
30399;DHT22;17195;50.838;7.214;2022-07-23T06:00:07;17.80;99.90
30399;DHT22;17195;50.838;7.214;2022-07-23T06:02:33;17.70;99.90
30399;DHT22;17195;50.838;7.214;2022-07-23T06:04:59;17.70;99.90
30399;DHT22;17195;50.838;7.214;2022-07-23T06:07:24;17.80;99.90
30399;DHT22;17195;50.838;7.214;2022-07-23T06:09:50;17.80;99.90
30399;DHT22;17195;50.838;7.214;2022-07-23T06:12:16;17.90;99.90
30399;DHT22;17195;50.838;7.214;2022-07-23T06:14:42;17.90;99.90
30399;DHT22;17195;50.838;7.214;2022-07-23T06:17:08;17.90;99.90
30399;DHT22;17195;50.838;7.214;2022-07-23T06:19:34;17.90;99.90
30399;DHT22;17195;50.838;7.214;2022-07-23T06:21:59;17.90;99.90
30399;DHT22;17195;50.838;7.214;2022-07-23T06:24:25;17.90;99.90
30399;DHT22;17195;50.838;7.214;2022-07-23T06:26:50;17.90;99.90
30399;DHT22;17195;50.838;7.214;2022-07-23T06:29:16;17.90;99.90
30399;DHT22;17195;50.838;7.214;2022-07-23T06:31:41;17.90;99.90
30399;DHT22;17195;50.838;7.214;2022-07-23T06:34:07;17.80;99.90
30399;DHT22;17195;50.838;7.214;2022-07-23T06:36:32;17.80;99.90
30399;DHT22;17195;50.838;7.214;2022-07-23T06:38:58;17.80;99.90
30399;DHT22;17195;50.838;7.214;2022-07-23T06:41:24;17.90;99.90
30399;DHT22;17195;50.838;7.214;2022-07-23T06:43:49;18.00;99.90
30399;DHT22;17195;50.838;7.214;2022-07-23T06:46:15;18.00;99.90
30399;DHT22;17195;50.838;7.214;2022-07-23T06:48:40;18.10;99.90
30399;DHT22;17195;50.838;7.214;2022-07-23T06:51:06;18.10;99.90
30399;DHT22;17195;50.838;7.214;2022-07-23T06:53:31;18.20;99.90
30399;DHT22;17195;50.838;7.214;2022-07-23T06:55:57;18.30;99.90
30399;DHT22;17195;50.838;7.214;2022-07-23T06:58:23;18.50;99.90
30399;DHT22;17195;50.838;7.214;2022-07-23T07:00:48;18.60;99.90
30399;DHT22;17195;50.838;7.214;2022-07-23T07:03:14;18.70;99.90
30399;DHT22;17195;50.838;7.214;2022-07-23T07:05:39;18.70;99.90
30399;DHT22;17195;50.838;7.214;2022-07-23T07:08:05;18.80;99.90
30399;DHT22;17195;50.838;7.214;2022-07-23T07:10:31;18.90;99.90
30399;DHT22;17195;50.838;7.214;2022-07-23T07:12:57;19.00;99.90
30399;DHT22;17195;50.838;7.214;2022-07-23T07:15:23;19.10;99.90
30399;DHT22;17195;50.838;7.214;2022-07-23T07:17:48;19.30;99.90
30399;DHT22;17195;50.838;7.214;2022-07-23T07:20:14;19.40;99.90
30399;DHT22;17195;50.838;7.214;2022-07-23T07:22:39;19.60;99.90
30399;DHT22;17195;50.838;7.214;2022-07-23T07:25:06;19.70;99.90
30399;DHT22;17195;50.838;7.214;2022-07-23T07:27:32;19.70;99.90
30399;DHT22;17195;50.838;7.214;2022-07-23T07:29:57;19.70;99.90
30399;DHT22;17195;50.838;7.214;2022-07-23T07:32:22;19.80;99.90
30399;DHT22;17195;50.838;7.214;2022-07-23T07:34:48;19.90;99.90
30399;DHT22;17195;50.838;7.214;2022-07-23T07:37:14;19.80;99.90
30399;DHT22;17195;50.838;7.214;2022-07-23T07:39:39;19.90;99.90
30399;DHT22;17195;50.838;7.214;2022-07-23T07:42:05;19.90;99.90
30399;DHT22;17195;50.838;7.214;2022-07-23T07:44:30;19.90;99.90
30399;DHT22;17195;50.838;7.214;2022-07-23T07:46:56;20.10;99.90
30399;DHT22;17195;50.838;7.214;2022-07-23T07:49:21;20.20;99.90
30399;DHT22;17195;50.838;7.214;2022-07-23T07:51:47;20.20;99.90
30399;DHT22;17195;50.838;7.214;2022-07-23T07:54:13;20.40;99.90
30399;DHT22;17195;50.838;7.214;2022-07-23T07:56:38;20.50;99.90
30399;DHT22;17195;50.838;7.214;2022-07-23T07:59:05;20.50;99.90
30399;DHT22;17195;50.838;7.214;2022-07-23T08:01:31;20.70;99.90
30399;DHT22;17195;50.838;7.214;2022-07-23T08:03:57;20.60;99.90
30399;DHT22;17195;50.838;7.214;2022-07-23T08:06:22;20.70;99.90
30399;DHT22;17195;50.838;7.214;2022-07-23T08:08:48;20.70;99.90
30399;DHT22;17195;50.838;7.214;2022-07-23T08:11:13;20.60;99.90
30399;DHT22;17195;50.838;7.214;2022-07-23T08:13:39;20.60;99.90
30399;DHT22;17195;50.838;7.214;2022-07-23T08:16:05;20.70;99.90
30399;DHT22;17195;50.838;7.214;2022-07-23T08:18:30;20.80;99.90
30399;DHT22;17195;50.838;7.214;2022-07-23T08:20:56;20.80;99.90
30399;DHT22;17195;50.838;7.214;2022-07-23T08:23:21;20.90;99.90
30399;DHT22;17195;50.838;7.214;2022-07-23T08:25:47;20.90;99.90
30399;DHT22;17195;50.838;7.214;2022-07-23T08:28:14;21.00;99.90
30399;DHT22;17195;50.838;7.214;2022-07-23T08:30:42;20.90;99.90
30399;DHT22;17195;50.838;7.214;2022-07-23T08:33:10;20.80;99.90
30399;DHT22;17195;50.838;7.214;2022-07-23T08:35:43;20.80;99.90
30399;DHT22;17195;50.838;7.214;2022-07-23T08:38:11;21.00;99.90
30399;DHT22;17195;50.838;7.214;2022-07-23T08:40:39;20.90;99.90
30399;DHT22;17195;50.838;7.214;2022-07-23T08:43:08;21.00;99.90
30399;DHT22;17195;50.838;7.214;2022-07-23T08:45:39;21.20;99.90
30399;DHT22;17195;50.838;7.214;2022-07-23T08:48:15;21.20;99.90
30399;DHT22;17195;50.838;7.214;2022-07-23T08:50:43;21.20;99.90
30399;DHT22;17195;50.838;7.214;2022-07-23T08:53:10;21.10;99.90
30399;DHT22;17195;50.838;7.214;2022-07-23T08:55:36;21.20;99.90
30399;DHT22;17195;50.838;7.214;2022-07-23T08:58:02;21.30;99.90
30399;DHT22;17195;50.838;7.214;2022-07-23T09:00:27;21.30;99.90
30399;DHT22;17195;50.838;7.214;2022-07-23T09:02:53;21.40;99.90
30399;DHT22;17195;50.838;7.214;2022-07-23T09:05:19;21.60;99.90
30399;DHT22;17195;50.838;7.214;2022-07-23T09:15:55;22.10;99.90
30399;DHT22;17195;50.838;7.214;2022-07-23T09:21:25;21.90;99.90
30399;DHT22;17195;50.838;7.214;2022-07-23T09:28:52;22.00;99.90
30399;DHT22;17195;50.838;7.214;2022-07-23T09:31:20;22.10;99.90
30399;DHT22;17195;50.838;7.214;2022-07-23T09:33:45;22.10;99.90
30399;DHT22;17195;50.838;7.214;2022-07-23T09:36:11;22.30;99.90
30399;DHT22;17195;50.838;7.214;2022-07-23T09:38:48;22.50;99.90
30399;DHT22;17195;50.838;7.214;2022-07-23T09:41:14;22.50;99.90
30399;DHT22;17195;50.838;7.214;2022-07-23T09:43:39;22.50;99.90
30399;DHT22;17195;50.838;7.214;2022-07-23T09:46:21;22.50;99.90
30399;DHT22;17195;50.838;7.214;2022-07-23T09:48:48;22.80;99.90
30399;DHT22;17195;50.838;7.214;2022-07-23T09:51:14;23.00;99.90
30399;DHT22;17195;50.838;7.214;2022-07-23T09:54:00;23.00;99.90
30399;DHT22;17195;50.838;7.214;2022-07-23T09:56:27;23.10;99.90
30399;DHT22;17195;50.838;7.214;2022-07-23T09:58:53;23.10;99.90
30399;DHT22;17195;50.838;7.214;2022-07-23T10:01:48;23.20;99.90
30399;DHT22;17195;50.838;7.214;2022-07-23T10:04:15;23.30;99.90
30399;DHT22;17195;50.838;7.214;2022-07-23T10:06:43;23.40;99.90
30399;DHT22;17195;50.838;7.214;2022-07-23T10:09:12;23.50;99.90
30399;DHT22;17195;50.838;7.214;2022-07-23T10:11:38;23.70;99.90
30399;DHT22;17195;50.838;7.214;2022-07-23T10:14:04;23.80;99.90
30399;DHT22;17195;50.838;7.214;2022-07-23T10:16:31;23.80;99.90
30399;DHT22;17195;50.838;7.214;2022-07-23T10:18:57;23.60;99.90
30399;DHT22;17195;50.838;7.214;2022-07-23T10:21:40;23.70;99.90
30399;DHT22;17195;50.838;7.214;2022-07-23T10:24:18;23.80;99.90
30399;DHT22;17195;50.838;7.214;2022-07-23T10:38:54;24.10;99.90
30399;DHT22;17195;50.838;7.214;2022-07-23T10:41:35;24.20;99.90
30399;DHT22;17195;50.838;7.214;2022-07-23T10:44:10;24.40;99.90
30399;DHT22;17195;50.838;7.214;2022-07-23T10:46:53;24.60;99.90
30399;DHT22;17195;50.838;7.214;2022-07-23T10:49:29;24.70;99.90
30399;DHT22;17195;50.838;7.214;2022-07-23T10:54:39;24.70;99.90
30399;DHT22;17195;50.838;7.214;2022-07-23T10:57:07;24.70;99.90
30399;DHT22;17195;50.838;7.214;2022-07-23T11:02:29;24.80;98.80
30399;DHT22;17195;50.838;7.214;2022-07-23T11:05:00;24.90;96.90
30399;DHT22;17195;50.838;7.214;2022-07-23T11:07:26;25.10;96.90
30399;DHT22;17195;50.838;7.214;2022-07-23T11:09:52;25.30;97.40
30399;DHT22;17195;50.838;7.214;2022-07-23T11:17:30;25.30;98.20
30399;DHT22;17195;50.838;7.214;2022-07-23T11:22:39;25.40;98.30
30399;DHT22;17195;50.838;7.214;2022-07-23T11:25:05;25.60;96.50
30399;DHT22;17195;50.838;7.214;2022-07-23T11:27:38;25.70;96.30
30399;DHT22;17195;50.838;7.214;2022-07-23T11:30:05;25.80;96.20
30399;DHT22;17195;50.838;7.214;2022-07-23T11:32:37;26.00;96.00
30399;DHT22;17195;50.838;7.214;2022-07-23T11:35:19;26.00;96.60
30399;DHT22;17195;50.838;7.214;2022-07-23T11:37:46;26.10;96.70
30399;DHT22;17195;50.838;7.214;2022-07-23T11:40:15;26.20;95.00
30399;DHT22;17195;50.838;7.214;2022-07-23T11:43:12;26.30;94.90
30399;DHT22;17195;50.838;7.214;2022-07-23T11:45:38;26.40;95.60
30399;DHT22;17195;50.838;7.214;2022-07-23T11:48:07;26.60;96.40
30399;DHT22;17195;50.838;7.214;2022-07-23T11:50:33;26.60;95.40
30399;DHT22;17195;50.838;7.214;2022-07-23T11:52:59;26.40;95.00
30399;DHT22;17195;50.838;7.214;2022-07-23T11:55:25;26.40;94.80
30399;DHT22;17195;50.838;7.214;2022-07-23T11:57:52;26.40;94.90
30399;DHT22;17195;50.838;7.214;2022-07-23T12:00:24;26.20;94.60
30399;DHT22;17195;50.838;7.214;2022-07-23T12:02:52;26.30;93.80
30399;DHT22;17195;50.838;7.214;2022-07-23T12:05:20;26.40;93.70
30399;DHT22;17195;50.838;7.214;2022-07-23T12:07:51;26.50;93.20
30399;DHT22;17195;50.838;7.214;2022-07-23T12:10:26;26.60;93.80
30399;DHT22;17195;50.838;7.214;2022-07-23T12:12:59;26.70;92.90
30399;DHT22;17195;50.838;7.214;2022-07-23T12:15:37;26.60;93.20
30399;DHT22;17195;50.838;7.214;2022-07-23T12:18:05;26.90;92.50
30399;DHT22;17195;50.838;7.214;2022-07-23T12:20:36;26.90;92.00
30399;DHT22;17195;50.838;7.214;2022-07-23T12:23:05;27.00;92.40
30399;DHT22;17195;50.838;7.214;2022-07-23T12:25:36;27.00;91.80
30399;DHT22;17195;50.838;7.214;2022-07-23T12:30:37;27.00;91.50
30399;DHT22;17195;50.838;7.214;2022-07-23T12:33:04;27.20;91.10
30399;DHT22;17195;50.838;7.214;2022-07-23T12:35:42;27.00;90.60
30399;DHT22;17195;50.838;7.214;2022-07-23T12:38:10;27.00;90.70
30399;DHT22;17195;50.838;7.214;2022-07-23T12:40:45;27.20;90.70
30399;DHT22;17195;50.838;7.214;2022-07-23T12:43:21;27.40;90.20
30399;DHT22;17195;50.838;7.214;2022-07-23T12:45:51;27.40;89.80
30399;DHT22;17195;50.838;7.214;2022-07-23T12:48:24;27.60;88.70
30399;DHT22;17195;50.838;7.214;2022-07-23T12:50:51;27.80;85.70
30399;DHT22;17195;50.838;7.214;2022-07-23T12:53:18;27.70;85.30
30399;DHT22;17195;50.838;7.214;2022-07-23T12:55:45;27.90;85.70
30399;DHT22;17195;50.838;7.214;2022-07-23T12:58:15;28.20;85.00
30399;DHT22;17195;50.838;7.214;2022-07-23T13:03:25;28.20;82.70
30399;DHT22;17195;50.838;7.214;2022-07-23T13:05:51;28.20;83.80
30399;DHT22;17195;50.838;7.214;2022-07-23T13:08:17;28.10;81.80
30399;DHT22;17195;50.838;7.214;2022-07-23T13:10:43;28.20;81.80
30399;DHT22;17195;50.838;7.214;2022-07-23T13:13:12;28.50;81.40
30399;DHT22;17195;50.838;7.214;2022-07-23T13:15:37;28.50;79.40
30399;DHT22;17195;50.838;7.214;2022-07-23T13:18:03;28.60;78.60
30399;DHT22;17195;50.838;7.214;2022-07-23T13:20:28;28.80;78.20
30399;DHT22;17195;50.838;7.214;2022-07-23T13:22:54;29.20;76.70
30399;DHT22;17195;50.838;7.214;2022-07-23T13:25:19;29.30;75.00
30399;DHT22;17195;50.838;7.214;2022-07-23T13:27:45;29.00;74.10
30399;DHT22;17195;50.838;7.214;2022-07-23T13:30:11;28.80;74.00
30399;DHT22;17195;50.838;7.214;2022-07-23T13:32:37;28.60;73.70
30399;DHT22;17195;50.838;7.214;2022-07-23T13:35:03;28.60;74.30
30399;DHT22;17195;50.838;7.214;2022-07-23T13:37:29;28.60;73.50
30399;DHT22;17195;50.838;7.214;2022-07-23T13:39:54;28.80;74.20
30399;DHT22;17195;50.838;7.214;2022-07-23T13:42:20;28.90;74.50
30399;DHT22;17195;50.838;7.214;2022-07-23T13:44:45;29.10;73.10
30399;DHT22;17195;50.838;7.214;2022-07-23T13:47:11;29.30;73.00
30399;DHT22;17195;50.838;7.214;2022-07-23T13:49:36;29.40;73.10
30399;DHT22;17195;50.838;7.214;2022-07-23T13:52:03;29.40;72.40
30399;DHT22;17195;50.838;7.214;2022-07-23T13:54:29;29.50;71.70
30399;DHT22;17195;50.838;7.214;2022-07-23T13:56:55;29.50;72.50
30399;DHT22;17195;50.838;7.214;2022-07-23T13:59:21;29.40;73.20
30399;DHT22;17195;50.838;7.214;2022-07-23T14:01:46;29.40;73.00
30399;DHT22;17195;50.838;7.214;2022-07-23T14:04:12;29.40;72.30
30399;DHT22;17195;50.838;7.214;2022-07-23T14:06:38;29.70;71.80
30399;DHT22;17195;50.838;7.214;2022-07-23T14:09:03;29.70;71.00
30399;DHT22;17195;50.838;7.214;2022-07-23T14:11:29;29.90;71.10
30399;DHT22;17195;50.838;7.214;2022-07-23T14:13:56;30.10;70.30
30399;DHT22;17195;50.838;7.214;2022-07-23T14:16:21;30.00;70.40
30399;DHT22;17195;50.838;7.214;2022-07-23T14:18:47;29.70;70.30
30399;DHT22;17195;50.838;7.214;2022-07-23T14:21:13;29.60;70.70
30399;DHT22;17195;50.838;7.214;2022-07-23T14:23:38;30.00;70.90
30399;DHT22;17195;50.838;7.214;2022-07-23T14:26:04;29.80;70.10
30399;DHT22;17195;50.838;7.214;2022-07-23T14:28:32;30.00;70.40
30399;DHT22;17195;50.838;7.214;2022-07-23T14:30:57;30.00;68.70
30399;DHT22;17195;50.838;7.214;2022-07-23T14:33:23;29.90;68.50
30399;DHT22;17195;50.838;7.214;2022-07-23T14:35:48;30.10;68.40
30399;DHT22;17195;50.838;7.214;2022-07-23T14:38:14;30.20;69.10
30399;DHT22;17195;50.838;7.214;2022-07-23T14:40:40;30.60;67.90
30399;DHT22;17195;50.838;7.214;2022-07-23T14:43:06;31.10;67.00
30399;DHT22;17195;50.838;7.214;2022-07-23T14:45:31;31.50;66.40
30399;DHT22;17195;50.838;7.214;2022-07-23T14:47:57;31.90;64.40
30399;DHT22;17195;50.838;7.214;2022-07-23T14:50:23;31.90;64.10
30399;DHT22;17195;50.838;7.214;2022-07-23T14:52:49;32.30;63.50
30399;DHT22;17195;50.838;7.214;2022-07-23T14:55:14;32.30;63.10
30399;DHT22;17195;50.838;7.214;2022-07-23T14:57:42;32.80;61.30
30399;DHT22;17195;50.838;7.214;2022-07-23T15:00:08;33.10;60.30
30399;DHT22;17195;50.838;7.214;2022-07-23T15:02:34;33.20;59.40
30399;DHT22;17195;50.838;7.214;2022-07-23T15:05:00;33.20;59.30
30399;DHT22;17195;50.838;7.214;2022-07-23T15:07:29;33.20;57.80
30399;DHT22;17195;50.838;7.214;2022-07-23T15:09:56;32.70;58.50
30399;DHT22;17195;50.838;7.214;2022-07-23T15:12:21;32.80;58.30
30399;DHT22;17195;50.838;7.214;2022-07-23T15:14:47;32.70;57.10
30399;DHT22;17195;50.838;7.214;2022-07-23T15:17:13;33.10;57.30
30399;DHT22;17195;50.838;7.214;2022-07-23T15:19:38;33.90;56.50
30399;DHT22;17195;50.838;7.214;2022-07-23T15:22:04;34.50;55.80
30399;DHT22;17195;50.838;7.214;2022-07-23T15:24:30;35.50;53.60
30399;DHT22;17195;50.838;7.214;2022-07-23T15:26:56;36.50;51.70
30399;DHT22;17195;50.838;7.214;2022-07-23T15:29:22;37.70;50.20
30399;DHT22;17195;50.838;7.214;2022-07-23T15:31:48;39.90;46.60
30399;DHT22;17195;50.838;7.214;2022-07-23T15:34:14;41.90;41.90
30399;DHT22;17195;50.838;7.214;2022-07-23T15:36:40;42.70;38.40
30399;DHT22;17195;50.838;7.214;2022-07-23T15:39:06;43.10;35.90
30399;DHT22;17195;50.838;7.214;2022-07-23T15:41:32;42.60;35.60
30399;DHT22;17195;50.838;7.214;2022-07-23T15:43:58;41.90;34.90
30399;DHT22;17195;50.838;7.214;2022-07-23T15:46:25;41.90;34.60
30399;DHT22;17195;50.838;7.214;2022-07-23T15:48:51;42.20;34.20
30399;DHT22;17195;50.838;7.214;2022-07-23T15:51:17;42.50;33.40
30399;DHT22;17195;50.838;7.214;2022-07-23T15:53:42;42.60;32.40
30399;DHT22;17195;50.838;7.214;2022-07-23T15:56:09;42.80;31.80
30399;DHT22;17195;50.838;7.214;2022-07-23T15:58:34;42.80;31.70
30399;DHT22;17195;50.838;7.214;2022-07-23T16:01:00;43.80;30.80
30399;DHT22;17195;50.838;7.214;2022-07-23T16:03:31;45.00;29.80
30399;DHT22;17195;50.838;7.214;2022-07-23T16:05:57;45.80;28.60
30399;DHT22;17195;50.838;7.214;2022-07-23T16:08:23;44.60;28.50
30399;DHT22;17195;50.838;7.214;2022-07-23T16:10:49;44.10;28.80
30399;DHT22;17195;50.838;7.214;2022-07-23T16:13:14;43.30;28.90
30399;DHT22;17195;50.838;7.214;2022-07-23T16:15:41;42.30;29.80